Time,TemperatureF,DewpointF,PressureIn,WindDirection,WindDirectionDegrees,WindSpeedMPH,WindSpeedGustMPH,Humidity,HourlyPrecipIn,Conditions,Clouds,dailyrainin,SoftwareType,DateUTC
2013-10-26 00:13:00,56.0,51.0,30.31,NE,49,0.0,0.0,82,0.00,,,0.00,,2013-10-26 05:13:00,
2013-10-26 00:23:00,55.0,50.0,30.30,NE,49,0.0,0.0,84,0.00,,,0.00,,2013-10-26 05:23:00,
2013-10-26 00:43:00,55.0,50.0,30.29,NE,49,0.0,0.0,84,0.00,,,0.00,,2013-10-26 05:43:00,
2013-10-26 00:52:00,54.0,50.0,30.29,NE,49,0.0,0.0,85,0.00,,,0.00,,2013-10-26 05:52:00,
2013-10-26 01:12:00,54.0,50.0,30.29,NE,49,0.0,0.0,85,0.00,,,0.00,,2013-10-26 06:12:00,
2013-10-26 01:22:00,54.0,50.0,30.29,NE,49,0.0,0.0,86,0.00,,,0.00,,2013-10-26 06:22:00,
2013-10-26 01:52:00,53.0,49.0,30.28,NE,49,0.0,0.0,87,0.00,,,0.00,,2013-10-26 06:52:00,
2013-10-26 02:11:00,53.0,49.0,30.28,NE,49,0.0,0.0,87,0.00,,,0.00,,2013-10-26 07:11:00,
2013-10-26 02:22:00,52.0,49.0,30.28,NE,49,0.0,0.0,88,0.00,,,0.00,,2013-10-26 07:22:00,
2013-10-26 02:42:00,52.0,49.0,30.28,NE,49,0.0,0.0,89,0.00,,,0.00,,2013-10-26 07:42:00,
2013-10-26 02:52:00,51.0,48.0,30.27,NE,49,0.0,0.0,90,0.00,,,0.00,,2013-10-26 07:52:00,
2013-10-26 03:11:00,51.0,48.0,30.27,NE,49,0.0,0.0,90,0.00,,,0.00,,2013-10-26 08:11:00,
2013-10-26 03:22:00,51.0,48.0,30.27,NE,49,0.0,0.0,91,0.00,,,0.00,,2013-10-26 08:22:00,
2013-10-26 03:42:00,51.0,48.0,30.27,NE,49,0.0,0.0,91,0.00,,,0.00,,2013-10-26 08:42:00,
2013-10-26 03:52:00,50.0,47.0,30.27,NE,49,0.0,0.0,91,0.00,,,0.00,,2013-10-26 08:52:00,
2013-10-26 04:11:00,50.0,48.0,30.26,NE,49,0.0,0.0,92,0.00,,,0.00,,2013-10-26 09:11:00,
2013-10-26 04:22:00,50.0,48.0,30.26,NE,49,0.0,0.0,92,0.00,,,0.00,,2013-10-26 09:22:00,
2013-10-26 04:43:00,50.0,48.0,30.25,NE,49,0.0,0.0,92,0.00,,,0.00,,2013-10-26 09:43:00,
2013-10-26 04:53:00,49.0,47.0,30.25,NE,49,0.0,0.0,93,0.00,,,0.00,,2013-10-26 09:53:00,
2013-10-26 05:13:00,49.0,47.0,30.25,NE,49,0.0,0.0,93,0.00,,,0.00,,2013-10-26 10:13:00,
2013-10-26 05:23:00,49.0,47.0,30.24,NE,49,0.0,0.0,94,0.00,,,0.00,,2013-10-26 10:23:00,
2013-10-26 05:53:00,49.0,47.0,30.24,NE,49,0.0,0.0,94,0.00,,,0.00,,2013-10-26 10:53:00,
2013-10-26 06:11:00,49.0,47.0,30.25,NE,49,0.0,0.0,94,0.00,,,0.00,,2013-10-26 11:11:00,
2013-10-26 06:21:00,49.0,47.0,30.25,NE,49,0.0,0.0,94,0.00,,,0.00,,2013-10-26 11:21:00,
2013-10-26 06:42:00,49.0,47.0,30.24,NE,49,0.0,0.0,94,0.00,,,0.00,,2013-10-26 11:42:00,
2013-10-26 06:52:00,49.0,48.0,30.24,NE,49,0.0,0.0,95,0.00,,,0.00,,2013-10-26 11:52:00,
2013-10-26 07:12:00,49.0,48.0,30.24,NE,49,0.0,1.0,95,0.00,,,0.00,,2013-10-26 12:12:00,
2013-10-26 07:22:00,49.0,48.0,30.25,NE,49,0.0,0.0,95,0.00,,,0.00,,2013-10-26 12:22:00,
2013-10-26 07:42:00,49.0,48.0,30.25,NE,49,0.0,0.0,95,0.00,,,0.00,,2013-10-26 12:42:00,
2013-10-26 07:52:00,49.0,48.0,30.25,NE,49,0.0,0.0,95,0.00,,,0.00,,2013-10-26 12:52:00,
2013-10-26 08:11:00,49.0,48.0,30.25,NE,49,0.0,0.0,95,0.00,,,0.00,,2013-10-26 13:11:00,
2013-10-26 08:21:00,48.0,47.0,30.26,NE,49,0.0,0.0,95,0.00,,,0.00,,2013-10-26 13:21:00,
2013-10-26 08:42:00,49.0,48.0,30.26,NE,49,0.0,0.0,95,0.00,,,0.00,,2013-10-26 13:42:00,
2013-10-26 08:52:00,49.0,48.0,30.27,NE,49,0.0,0.0,96,0.00,,,0.00,,2013-10-26 13:52:00,
2013-10-26 09:11:00,49.0,48.0,30.27,NE,49,0.0,0.0,96,0.00,,,0.00,,2013-10-26 14:11:00,
2013-10-26 09:21:00,50.0,49.0,30.28,NE,49,0.0,0.0,96,0.00,,,0.00,,2013-10-26 14:21:00,
2013-10-26 09:42:00,51.0,50.0,30.28,NE,49,0.0,0.0,96,0.00,,,0.00,,2013-10-26 14:42:00,
2013-10-26 09:52:00,52.0,51.0,30.29,NE,49,0.0,0.0,97,0.00,,,0.00,,2013-10-26 14:52:00,
2013-10-26 10:12:00,53.0,52.0,30.29,NE,49,0.0,0.0,97,0.00,,,0.00,,2013-10-26 15:12:00,
2013-10-26 10:23:00,54.0,53.0,30.29,NE,49,0.0,0.0,97,0.00,,,0.00,,2013-10-26 15:23:00,
2013-10-26 10:44:00,56.0,55.0,30.29,NE,49,0.0,0.0,97,0.00,,,0.00,,2013-10-26 15:44:00,
2013-10-26 10:55:00,58.0,57.0,30.29,NE,49,0.0,0.0,97,0.00,,,0.00,,2013-10-26 15:55:00,
2013-10-26 11:14:00,60.0,59.0,30.29,NE,49,0.0,0.0,96,0.00,,,0.00,,2013-10-26 16:14:00,
2013-10-26 11:24:00,63.0,61.0,30.29,SE,124,0.0,1.0,93,0.00,,,0.00,,2013-10-26 16:24:00,
2013-10-26 11:44:00,64.0,61.0,30.29,SE,124,0.0,1.0,91,0.00,,,0.00,,2013-10-26 16:44:00,
2013-10-26 11:54:00,66.0,62.0,30.28,SE,124,0.0,0.0,88,0.00,,,0.00,,2013-10-26 16:54:00,
2013-10-26 12:12:00,67.0,63.0,30.28,SE,124,0.0,0.0,86,0.00,,,0.00,,2013-10-26 17:12:00,
2013-10-26 12:23:00,68.0,63.0,30.27,SSE,147,0.0,1.0,85,0.00,,,0.00,,2013-10-26 17:23:00,
2013-10-26 12:43:00,69.0,64.0,30.27,SW,227,0.0,1.0,83,0.00,,,0.00,,2013-10-26 17:43:00,
2013-10-26 12:52:00,70.0,64.0,30.26,SW,227,0.0,1.0,82,0.00,,,0.00,,2013-10-26 17:52:00,
2013-10-26 13:12:00,71.0,65.0,30.26,SSE,167,0.0,1.0,81,0.00,,,0.00,,2013-10-26 18:12:00,
2013-10-26 13:22:00,71.0,63.0,30.25,East,101,0.0,1.0,76,0.00,,,0.00,,2013-10-26 18:22:00,
2013-10-26 13:42:00,72.0,63.0,30.24,ESE,115,0.0,1.0,74,0.00,,,0.00,,2013-10-26 18:42:00,
2013-10-26 13:52:00,73.0,66.0,30.23,SE,140,0.0,2.0,78,0.00,,,0.00,,2013-10-26 18:52:00,
2013-10-26 14:12:00,73.0,65.0,30.23,SE,140,0.0,3.0,75,0.00,,,0.00,,2013-10-26 19:12:00,
2013-10-26 14:22:00,74.0,65.0,30.22,SSE,155,0.0,1.0,74,0.00,,,0.00,,2013-10-26 19:22:00,
2013-10-26 14:42:00,74.0,64.0,30.21,SSE,154,0.0,1.0,71,0.00,,,0.00,,2013-10-26 19:42:00,
2013-10-26 14:52:00,74.0,64.0,30.20,SSW,199,0.0,1.0,71,0.00,,,0.00,,2013-10-26 19:52:00,
2013-10-26 15:12:00,74.0,64.0,30.20,South,191,0.0,1.0,72,0.00,,,0.00,,2013-10-26 20:12:00,
2013-10-26 15:22:00,74.0,64.0,30.19,SSE,150,0.0,1.0,71,0.00,,,0.00,,2013-10-26 20:22:00,
2013-10-26 15:43:00,74.0,65.0,30.19,SSW,196,0.0,1.0,74,0.00,,,0.00,,2013-10-26 20:43:00,
2013-10-26 15:52:00,74.0,66.0,30.19,SE,134,0.0,2.0,75,0.00,,,0.00,,2013-10-26 20:52:00,
2013-10-26 16:11:00,74.0,64.0,30.19,WNW,284,0.0,5.0,71,0.00,,,0.00,,2013-10-26 21:11:00,
2013-10-26 16:22:00,74.0,65.0,30.18,East,98,0.0,1.0,73,0.00,,,0.00,,2013-10-26 21:22:00,
2013-10-26 16:43:00,74.0,65.0,30.17,East,98,0.0,0.0,74,0.00,,,0.00,,2013-10-26 21:43:00,
2013-10-26 16:55:00,75.0,66.0,30.17,East,97,0.0,2.0,73,0.00,,,0.00,,2013-10-26 21:55:00,
2013-10-26 17:14:00,75.0,65.0,30.17,ESE,117,0.0,1.0,72,0.00,,,0.00,,2013-10-26 22:14:00,
2013-10-26 17:24:00,74.0,66.0,30.16,SE,136,0.0,1.0,75,0.00,,,0.00,,2013-10-26 22:24:00,
2013-10-26 17:54:00,72.0,65.0,30.16,SE,132,0.0,0.0,79,0.00,,,0.00,,2013-10-26 22:54:00,
2013-10-26 18:12:00,71.0,65.0,30.15,South,175,0.0,1.0,81,0.00,,,0.00,,2013-10-26 23:12:00,
2013-10-26 18:22:00,70.0,65.0,30.16,South,175,0.0,0.0,83,0.00,,,0.00,,2013-10-26 23:22:00,
2013-10-26 18:42:00,69.0,64.0,30.16,South,175,0.0,0.0,83,0.00,,,0.00,,2013-10-26 23:42:00,
2013-10-26 18:52:00,68.0,64.0,30.15,South,175,0.0,0.0,86,0.00,,,0.00,,2013-10-26 23:52:00,
2013-10-26 19:12:00,67.0,63.0,30.16,South,175,0.0,0.0,86,0.00,,,0.00,,2013-10-27 00:12:00,
2013-10-26 19:21:00,66.0,63.0,30.16,South,175,0.0,0.0,89,0.00,,,0.00,,2013-10-27 00:21:00,
2013-10-26 19:42:00,66.0,63.0,30.16,South,175,0.0,0.0,89,0.00,,,0.00,,2013-10-27 00:42:00,
2013-10-26 19:52:00,64.0,61.0,30.15,South,175,0.0,0.0,89,0.00,,,0.00,,2013-10-27 00:52:00,
2013-10-26 20:11:00,64.0,61.0,30.15,South,175,0.0,0.0,90,0.00,,,0.00,,2013-10-27 01:11:00,
2013-10-26 20:22:00,64.0,61.0,30.14,South,175,0.0,0.0,91,0.00,,,0.00,,2013-10-27 01:22:00,
2013-10-26 20:42:00,63.0,61.0,30.14,South,175,0.0,0.0,92,0.00,,,0.00,,2013-10-27 01:42:00,
2013-10-26 20:52:00,63.0,61.0,30.14,South,175,0.0,0.0,92,0.00,,,0.00,,2013-10-27 01:52:00,
2013-10-26 21:12:00,63.0,61.0,30.14,South,175,0.0,0.0,93,0.00,,,0.00,,2013-10-27 02:12:00,
2013-10-26 21:21:00,63.0,61.0,30.14,South,175,0.0,0.0,93,0.00,,,0.00,,2013-10-27 02:21:00,
2013-10-26 21:42:00,63.0,61.0,30.14,South,175,0.0,0.0,93,0.00,,,0.00,,2013-10-27 02:42:00,
2013-10-26 21:52:00,62.0,60.0,30.14,South,175,0.0,0.0,94,0.00,,,0.00,,2013-10-27 02:52:00,
2013-10-26 22:11:00,62.0,60.0,30.14,South,175,0.0,0.0,94,0.00,,,0.00,,2013-10-27 03:11:00,
2013-10-26 22:22:00,62.0,60.0,30.15,South,175,0.0,0.0,94,0.00,,,0.00,,2013-10-27 03:22:00,
2013-10-26 22:44:00,61.0,59.0,30.14,South,175,0.0,0.0,94,0.00,,,0.00,,2013-10-27 03:44:00,
2013-10-26 22:55:00,61.0,60.0,30.14,South,175,0.0,0.0,95,0.00,,,0.00,,2013-10-27 03:55:00,
2013-10-26 23:02:00,-999.0,-99.9,30.15,South,175,0.0,0.0,-999,-99.99,,,-99.99,,2013-10-27 04:02:00,
2013-10-26 23:13:00,61.0,60.0,30.15,South,175,0.0,0.0,95,0.00,,,0.00,,2013-10-27 04:13:00,
2013-10-26 23:24:00,60.0,59.0,30.15,South,175,0.0,0.0,95,0.00,,,0.00,,2013-10-27 04:24:00,
2013-10-26 23:44:00,60.0,59.0,30.14,South,175,0.0,0.0,95,0.00,,,0.00,,2013-10-27 04:44:00,
2013-10-26 23:54:00,60.0,59.0,30.14,South,175,0.0,0.0,95,0.00,,,0.00,,2013-10-27 04:54:00,